createdAt,value
2023-04-13T00:00:36.915Z,11.95
2023-04-13T00:05:40.123Z,12.50
2023-04-13T00:10:43.018Z,12.05
2023-04-13T00:15:45.633Z,12.55
2023-04-13T00:20:48.311Z,12.02
2023-04-13T00:25:51.388Z,11.95
2023-04-13T00:30:55.063Z,12.85
2023-04-13T00:35:57.683Z,14.20
2023-04-13T00:41:04.244Z,12.48
2023-04-13T00:46:09.122Z,13.25
2023-04-13T00:51:13.702Z,13.15
2023-04-13T00:56:16.604Z,13.70
2023-04-13T01:01:19.930Z,14.10
2023-04-13T01:06:45.191Z,12.80
2023-04-13T01:12:17.937Z,13.10
2023-04-13T01:23:00.518Z,13.20
2023-04-13T01:28:07.552Z,13.70
2023-04-13T01:33:12.197Z,12.98
2023-04-13T01:38:15.477Z,13.88
2023-04-13T01:43:19.755Z,13.73
2023-04-13T01:48:59.137Z,11.85
2023-04-13T01:54:23.985Z,13.27
2023-04-13T01:59:26.885Z,14.05
2023-04-13T02:04:30.189Z,13.23
2023-04-13T02:09:34.784Z,13.82
2023-04-13T02:14:37.569Z,13.77
2023-04-13T02:19:40.190Z,13.43
2023-04-13T02:24:42.818Z,14.75
2023-04-13T02:29:45.423Z,14.23
2023-04-13T02:34:48.070Z,13.80
2023-04-13T02:39:51.436Z,15.18
2023-04-13T02:44:55.316Z,13.70
2023-04-13T02:49:58.931Z,13.93
2023-04-13T02:55:08.251Z,14.45
2023-04-13T03:00:23.986Z,13.82
2023-04-13T03:05:32.515Z,14.00
2023-04-13T03:10:37.784Z,13.90
2023-04-13T03:15:42.308Z,14.43
2023-04-13T03:20:47.599Z,14.98
2023-04-13T03:25:51.004Z,13.88
2023-04-13T03:30:57.566Z,13.82
2023-04-13T03:36:00.366Z,14.00
2023-04-13T03:41:08.293Z,14.80
2023-04-13T03:46:13.264Z,14.45
2023-04-13T03:51:16.919Z,15.15
2023-04-13T03:56:23.617Z,12.95
2023-04-13T04:01:27.440Z,12.85
2023-04-13T04:06:31.389Z,13.32
2023-04-13T04:11:46.555Z,13.38
2023-04-13T04:16:53.825Z,13.38
2023-04-13T04:21:58.223Z,13.57
2023-04-13T04:27:05.836Z,12.63
2023-04-13T04:32:11.101Z,14.10
2023-04-13T04:37:20.767Z,15.02
2023-04-13T04:42:37.577Z,13.70
2023-04-13T04:47:44.900Z,13.65
2023-04-13T04:52:54.942Z,12.80
2023-04-13T04:58:00.139Z,13.18
2023-04-13T05:03:03.897Z,12.23
2023-04-13T05:08:06.837Z,13.63
2023-04-13T05:13:15.357Z,12.40
2023-04-13T05:18:25.960Z,14.18
2023-04-13T05:23:30.799Z,12.38
2023-04-13T05:28:42.066Z,12.05
2023-04-13T05:33:44.777Z,11.27
2023-04-13T05:38:47.470Z,11.77
2023-04-13T05:43:53.350Z,11.02
2023-04-13T05:48:58.231Z,11.73
2023-04-13T05:54:01.980Z,11.18
2023-04-13T05:59:05.548Z,10.75
2023-04-13T06:04:09.788Z,11.27
2023-04-13T06:09:13.390Z,11.65
2023-04-13T06:14:17.879Z,11.60
2023-04-13T06:19:21.035Z,10.88
2023-04-13T06:24:24.022Z,10.80
2023-04-13T06:29:26.841Z,10.82
2023-04-13T06:39:43.117Z,10.82
2023-04-13T06:44:46.710Z,11.18
2023-04-13T06:49:51.574Z,10.13
2023-04-13T06:54:55.902Z,11.38
2023-04-13T07:00:22.282Z,10.68
2023-04-13T07:05:32.238Z,9.68
2023-04-13T07:10:41.242Z,11.40
2023-04-13T07:15:52.463Z,9.82
2023-04-13T07:20:55.141Z,10.48
2023-04-13T07:26:02.759Z,11.35
2023-04-13T07:31:06.732Z,10.15
2023-04-13T07:36:10.605Z,11.02
2023-04-13T07:41:22.128Z,10.57
2023-04-13T07:46:28.140Z,11.18
2023-04-13T07:51:32.489Z,10.43
2023-04-13T07:56:36.460Z,9.27
2023-04-13T08:01:41.335Z,9.18
2023-04-13T08:06:44.757Z,8.02
2023-04-13T08:11:47.569Z,9.68
2023-04-13T08:16:50.595Z,9.45
2023-04-13T08:21:54.687Z,8.70
2023-04-13T08:26:58.952Z,7.55
2023-04-13T08:32:01.849Z,8.02
2023-04-13T08:37:06.029Z,7.78
2023-04-13T08:42:11.286Z,7.53
2023-04-13T08:47:14.107Z,7.65
2023-04-13T08:52:17.805Z,6.88
2023-04-13T08:57:24.564Z,7.00
2023-04-13T09:02:34.738Z,6.38
2023-04-13T09:07:43.815Z,6.78
2023-04-13T09:12:52.802Z,5.88
2023-04-13T09:17:55.765Z,6.53
2023-04-13T09:22:58.704Z,5.78
2023-04-13T09:28:01.455Z,5.63
2023-04-13T09:33:10.755Z,4.60
2023-04-13T09:38:16.365Z,4.88
2023-04-13T09:43:19.583Z,3.97
2023-04-13T09:48:23.193Z,3.55
2023-04-13T09:53:25.864Z,4.03
2023-04-13T09:58:29.020Z,3.47
2023-04-13T10:03:34.557Z,2.80
2023-04-13T10:08:39.194Z,2.50
2023-04-13T10:13:45.840Z,2.75
2023-04-13T10:19:06.506Z,2.53
2023-04-13T10:24:13.814Z,3.00
2023-04-13T10:29:30.952Z,3.00
2023-04-13T10:34:35.193Z,3.15
2023-04-13T10:39:37.879Z,3.30
2023-04-13T10:44:41.726Z,2.75
2023-04-13T10:49:48.651Z,2.80
2023-04-13T10:54:52.042Z,3.00
2023-04-13T10:59:59.396Z,3.17
2023-04-13T11:05:02.585Z,3.53
2023-04-13T11:10:07.434Z,3.28
2023-04-13T11:15:29.143Z,3.92
2023-04-13T11:20:39.742Z,2.65
2023-04-13T11:25:56.202Z,3.78
2023-04-13T11:30:58.787Z,3.35
2023-04-13T11:36:01.896Z,3.00
2023-04-13T11:46:13.760Z,3.45
2023-04-13T11:51:17.515Z,2.00
2023-04-13T11:56:20.936Z,2.78
2023-04-13T12:01:26.929Z,2.85
2023-04-13T12:06:35.042Z,2.75
2023-04-13T12:11:41.871Z,3.05
2023-04-13T12:21:56.357Z,3.25
2023-04-13T12:32:17.364Z,4.50
2023-04-13T12:37:20.141Z,4.18
2023-04-13T12:42:22.813Z,4.00
2023-04-13T12:47:26.248Z,3.70
2023-04-13T12:52:31.428Z,3.95
2023-04-13T12:57:34.099Z,3.90
2023-04-13T13:02:37.619Z,3.72
2023-04-13T13:07:40.499Z,3.85
2023-04-13T13:12:43.331Z,4.30
2023-04-13T13:17:46.018Z,3.72
2023-04-13T13:22:48.650Z,2.70
2023-04-13T13:32:56.830Z,3.17
2023-04-13T13:38:00.444Z,3.60
2023-04-13T13:43:04.423Z,2.70
2023-04-13T13:48:07.180Z,3.30
2023-04-13T13:53:24.442Z,2.80
2023-04-13T13:58:27.395Z,3.25
2023-04-13T14:03:30.469Z,4.78
2023-04-13T14:08:33.274Z,2.45
2023-04-13T14:13:35.966Z,2.50
2023-04-13T14:18:38.732Z,2.47
2023-04-13T14:23:41.866Z,2.67
2023-04-13T14:28:44.621Z,2.83
2023-04-13T14:33:47.288Z,2.58
2023-04-13T14:38:51.646Z,3.08
2023-04-13T14:43:54.384Z,2.50
2023-04-13T14:48:57.393Z,1.80
2023-04-13T14:54:00.190Z,1.98
2023-04-13T14:59:03.451Z,2.60
2023-04-13T15:04:06.912Z,2.50
2023-04-13T15:09:10.698Z,2.10
2023-04-13T15:14:13.251Z,2.88
2023-04-13T15:19:16.077Z,2.40
2023-04-13T15:24:18.841Z,2.20
2023-04-13T15:29:21.546Z,2.30
2023-04-13T15:34:24.254Z,2.40
2023-04-13T15:39:28.105Z,2.53
2023-04-13T15:44:30.728Z,2.10
2023-04-13T15:49:33.360Z,2.08
2023-04-13T15:54:36.156Z,2.30
2023-04-13T15:59:38.793Z,2.17
2023-04-13T16:04:41.712Z,2.22
2023-04-13T16:09:44.928Z,1.85
2023-04-13T16:14:47.603Z,1.95
2023-04-13T16:19:53.080Z,2.10
2023-04-13T16:24:55.796Z,2.00
2023-04-13T16:29:58.976Z,2.38
2023-04-13T16:35:02.190Z,2.38
2023-04-13T16:40:10.778Z,1.63
2023-04-13T16:45:15.266Z,2.15
2023-04-13T16:50:18.300Z,2.38
2023-04-13T16:55:21.310Z,2.72
2023-04-13T17:00:23.964Z,2.13
2023-04-13T17:05:28.528Z,1.65
2023-04-13T17:10:31.191Z,2.00
2023-04-13T17:15:33.811Z,1.55
2023-04-13T17:20:36.432Z,1.90
2023-04-13T17:25:41.659Z,1.75
2023-04-13T17:30:44.550Z,2.13
2023-04-13T17:35:47.609Z,2.05
2023-04-13T17:40:51.061Z,1.60
2023-04-13T17:45:53.809Z,1.60
2023-04-13T17:50:56.451Z,1.70
2023-04-13T17:55:59.103Z,1.45
2023-04-13T18:01:11.568Z,1.80
2023-04-13T18:06:15.544Z,2.00
2023-04-13T18:11:19.397Z,1.70
2023-04-13T18:16:22.865Z,1.50
2023-04-13T18:21:26.129Z,1.70
2023-04-13T18:26:29.753Z,1.40
2023-04-13T18:31:32.442Z,1.70
2023-04-13T18:36:35.324Z,2.00
2023-04-13T18:41:39.659Z,1.83
2023-04-13T18:46:44.545Z,1.25
2023-04-13T18:51:47.297Z,1.20
2023-04-13T18:56:49.980Z,1.58
2023-04-13T19:01:52.833Z,1.50
2023-04-13T19:06:55.757Z,1.77
2023-04-13T19:12:02.323Z,1.23
2023-04-13T19:17:05.810Z,1.15
2023-04-13T19:22:08.504Z,1.13
2023-04-13T19:27:11.159Z,1.60
2023-04-13T19:32:16.873Z,1.33
2023-04-13T19:37:19.674Z,1.40
2023-04-13T19:42:22.490Z,1.40
2023-04-13T19:47:25.177Z,1.48
2023-04-13T19:52:27.844Z,1.10
2023-04-13T19:57:30.769Z,1.58
2023-04-13T20:02:33.531Z,1.10
2023-04-13T20:07:36.262Z,1.10
2023-04-13T20:12:39.375Z,1.30
2023-04-13T20:17:42.041Z,1.20
2023-04-13T20:22:44.621Z,1.23
2023-04-13T20:27:47.266Z,0.98
2023-04-13T20:32:49.997Z,1.55
2023-04-13T20:37:52.755Z,1.75
2023-04-13T20:42:58.563Z,1.30
2023-04-13T20:53:24.949Z,1.40
2023-04-13T20:58:28.831Z,1.10
2023-04-13T21:03:32.169Z,1.25
2023-04-13T21:08:35.074Z,1.38
2023-04-13T21:13:37.733Z,1.10
2023-04-13T21:18:44.066Z,1.45
2023-04-13T21:23:51.348Z,1.85
2023-04-13T21:28:54.195Z,1.65
2023-04-13T21:33:59.223Z,0.98
2023-04-13T21:39:02.928Z,1.27
2023-04-13T21:44:19.122Z,1.33
2023-04-13T21:49:31.288Z,0.98
2023-04-13T21:54:33.886Z,1.70
2023-04-13T21:59:36.652Z,1.20
2023-04-13T22:04:39.323Z,1.13
2023-04-13T22:09:42.092Z,1.40
2023-04-13T22:14:44.788Z,1.25
2023-04-13T22:19:48.128Z,1.23
2023-04-13T22:24:52.481Z,1.05
2023-04-13T22:29:55.179Z,0.90
2023-04-13T22:34:57.864Z,1.20
2023-04-13T22:40:01.420Z,1.10
2023-04-13T22:45:05.402Z,1.20
2023-04-13T22:50:08.259Z,1.40
2023-04-13T22:55:10.897Z,1.50
2023-04-13T23:00:14.341Z,1.10
2023-04-13T23:05:17.541Z,1.35
2023-04-13T23:10:20.284Z,1.40
2023-04-13T23:15:22.955Z,1.02
2023-04-13T23:20:27.772Z,1.15
2023-04-13T23:25:31.753Z,1.25
2023-04-13T23:30:34.456Z,1.20
2023-04-13T23:35:37.114Z,1.17
2023-04-13T23:40:39.730Z,1.48
2023-04-13T23:45:42.794Z,1.70
2023-04-13T23:50:45.694Z,1.70
2023-04-13T23:55:48.360Z,1.70
